PGER-2019                                              PETERBOROUGH 

MARATHON-PHOTOS.COM RUPIX-BUTTON

The 2019 half marathon was cancelled due to a man acting suspiciously on one part of the route. Please email perkinsgreateasternrun@peterborough.gov.uk for refund details. You can view Anna's Hope Fun Run results and photos on this page.

This website is best viewed via google-chrome-flatten-logo

2019 PHOTOS

2019 RESULTS

2017 Half-Marathon Results
 Click here to see analysis of your race image001
Click on row to view position
Rank Chip Time Gun Time Bib No Forename Surname M/F Cat Club
4141 3:05:47 3:19:31 1155 Emma Grindrod F 40
4142 3:05:53 3:19:37 2968 Sarah Baines F
4143 3:05:54 3:20:24 4547 Claire Day F 50 DAVENTRY ROADRUNNERS
4144 3:06:01 3:21:44 743 Chelsey Noto F
4145 3:06:22 3:18:30 933 Darren Gilbert M 40
4146 3:07:02 3:22:45 1804 Julie Jones F
4147 3:07:03 3:22:45 373 Allison Temple F 40
4148 3:07:31 3:23:40 2916 Salina Cumbridge F 45
4149 3:07:31 3:23:40 1421 Hilary Sowden F 50
4150 3:07:35 3:23:07 404 Andrea Clarke F 50
4151 3:07:41 3:22:43 554 Avril Wisdom F 55
4152 3:07:43 3:14:30 1655 Jessica McDill F
4153 3:07:54 3:23:05 1669 Jo Leach F
4154 3:07:55 3:24:03 2226 Maria Kemp F 40
4155 3:07:55 3:24:03 2755 Rebecca Bradshaw F
4156 3:08:24 3:24:04 3816 Natasha Sinden F
4157 3:09:35 3:25:18 734 Charlotte James F
4158 3:09:49 3:23:50 3778 Mandy Powell F
4159 3:10:06 3:26:16 852 Clare Lawie F 45
4160 3:10:08 3:26:17 1419 Henry Smyth M 45